createdAt,value
2018-08-08T00:04:10.000Z,20.755
2018-08-08T00:14:10.000Z,20.866
2018-08-08T00:24:10.000Z,20.92
2018-08-08T00:34:10.000Z,20.99
2018-08-08T00:44:10.000Z,21.333
2018-08-08T00:54:10.000Z,21.378
2018-08-08T01:04:10.000Z,21.624
2018-08-08T01:14:10.000Z,21.882
2018-08-08T01:24:10.000Z,22.017
2018-08-08T01:34:10.000Z,22.599
2018-08-08T01:44:10.000Z,22.79
2018-08-08T01:54:10.000Z,23.671
2018-08-08T02:04:10.000Z,24.085
2018-08-08T02:14:11.000Z,24.378
2018-08-08T02:24:10.000Z,25.014
2018-08-08T02:34:10.000Z,25.346
2018-08-08T02:44:10.000Z,25.392
2018-08-08T02:54:10.000Z,25.602
2018-08-08T03:04:10.000Z,25.501
2018-08-08T03:14:10.000Z,25.879
2018-08-08T03:24:10.000Z,26.045
2018-08-08T03:34:10.000Z,26.054
2018-08-08T03:44:10.000Z,26.009
2018-08-08T03:54:10.000Z,25.687
2018-08-08T04:04:10.000Z,25.873
2018-08-08T04:14:10.000Z,25.95
2018-08-08T04:24:10.000Z,25.949
2018-08-08T04:34:10.000Z,25.921
2018-08-08T04:44:10.000Z,25.956
2018-08-08T04:54:11.000Z,26.371
2018-08-08T05:04:11.000Z,26.427
2018-08-08T05:14:11.000Z,27.143
2018-08-08T05:24:11.000Z,28.383
2018-08-08T05:34:11.000Z,28.605
2018-08-08T05:44:11.000Z,28.916
2018-08-08T05:54:11.000Z,29.208
2018-08-08T06:04:11.000Z,29.416
2018-08-08T06:14:11.000Z,32.499
2018-08-08T06:24:11.000Z,33.109
2018-08-08T06:34:11.000Z,36.367
2018-08-08T06:44:11.000Z,32.956
2018-08-08T06:54:11.000Z,33.105
2018-08-08T07:04:11.000Z,35.716
2018-08-08T07:14:11.000Z,37.267
2018-08-08T07:24:11.000Z,35.279
2018-08-08T07:34:11.000Z,37.379
2018-08-08T07:44:11.000Z,36.801
2018-08-08T07:54:11.000Z,35.928
2018-08-08T08:14:11.000Z,37.745
2018-08-08T08:24:11.000Z,38.021
2018-08-08T08:34:11.000Z,37.837
2018-08-08T08:44:11.000Z,37.54
2018-08-08T08:54:11.000Z,37.665
2018-08-08T09:04:11.000Z,39.76
2018-08-08T09:14:11.000Z,38.892
2018-08-08T09:24:11.000Z,38.488
2018-08-08T09:34:11.000Z,37.52
2018-08-08T09:44:11.000Z,37.25
2018-08-08T09:54:11.000Z,36.679
2018-08-08T10:04:11.000Z,36.987
2018-08-08T10:14:11.000Z,37.227
2018-08-08T10:24:11.000Z,36.932
2018-08-08T10:34:11.000Z,37.333
2018-08-08T10:44:11.000Z,38.281
2018-08-08T10:54:11.000Z,38.936
2018-08-08T11:04:11.000Z,37.574
2018-08-08T11:14:11.000Z,37.638
2018-08-08T11:24:12.000Z,36.936
2018-08-08T11:34:11.000Z,38.715
2018-08-08T11:44:11.000Z,40.214
2018-08-08T11:54:11.000Z,39.433
2018-08-08T12:04:12.000Z,39.845
2018-08-08T12:14:11.000Z,41.196
2018-08-08T12:24:11.000Z,40.81
2018-08-08T12:34:11.000Z,40.547
2018-08-08T12:44:11.000Z,38.375
2018-08-08T12:54:11.000Z,37.02
2018-08-08T13:04:12.000Z,36.024
2018-08-08T13:14:12.000Z,35.26
2018-08-08T13:24:12.000Z,35.208
2018-08-08T13:34:14.000Z,35.218
2018-08-08T13:44:12.000Z,34.429
2018-08-08T13:54:12.000Z,34.349
2018-08-08T14:04:12.000Z,33.894
2018-08-08T14:14:12.000Z,33.923
2018-08-08T14:24:12.000Z,33.33
2018-08-08T14:34:12.000Z,33.732
2018-08-08T14:44:12.000Z,33.5
2018-08-08T14:54:12.000Z,33.049
2018-08-08T15:04:12.000Z,32.938
2018-08-08T15:14:12.000Z,32.862
2018-08-08T15:24:12.000Z,32.536
2018-08-08T15:34:12.000Z,32.391
2018-08-08T15:44:12.000Z,32.142
2018-08-08T15:54:12.000Z,32.051
2018-08-08T16:04:12.000Z,32.072
2018-08-08T16:14:12.000Z,32.221
2018-08-08T16:24:12.000Z,31.86
2018-08-08T16:34:12.000Z,32.011
2018-08-08T16:44:12.000Z,31.738
2018-08-08T16:54:12.000Z,31.873
2018-08-08T17:04:12.000Z,31.873
2018-08-08T17:14:12.000Z,32.054
2018-08-08T17:24:12.000Z,32.383
2018-08-08T17:34:12.000Z,32.124
2018-08-08T17:44:12.000Z,32.169
2018-08-08T17:54:12.000Z,32.444
2018-08-08T18:04:12.000Z,31.869
2018-08-08T18:14:12.000Z,32
2018-08-08T18:24:12.000Z,31.893
2018-08-08T18:34:12.000Z,31.56
2018-08-08T18:44:12.000Z,31.271
2018-08-08T18:54:12.000Z,31.135
2018-08-08T19:04:12.000Z,31.114
2018-08-08T19:14:12.000Z,30.7
2018-08-08T19:24:12.000Z,30.663
2018-08-08T19:34:12.000Z,30.829
2018-08-08T19:44:12.000Z,30.951
2018-08-08T19:54:12.000Z,31.026
2018-08-08T20:04:12.000Z,31.27
2018-08-08T20:14:12.000Z,31.3
2018-08-08T20:24:12.000Z,31.377
2018-08-08T20:34:12.000Z,31.384
2018-08-08T20:44:12.000Z,31.403
2018-08-08T20:54:12.000Z,31.189
2018-08-08T21:04:13.000Z,31.018
2018-08-08T21:14:13.000Z,30.542
2018-08-08T21:24:13.000Z,29.039
2018-08-08T21:34:13.000Z,28.856
2018-08-08T21:44:13.000Z,28.459
2018-08-08T21:54:13.000Z,28.244
2018-08-08T22:04:13.000Z,28.172
2018-08-08T22:14:13.000Z,28.302
2018-08-08T22:24:13.000Z,28.325
2018-08-08T22:34:13.000Z,28.622
2018-08-08T22:44:13.000Z,28.777
2018-08-08T22:54:13.000Z,28.921
2018-08-08T23:04:13.000Z,29.131
2018-08-08T23:14:13.000Z,29.264
2018-08-08T23:24:14.000Z,29.529
2018-08-08T23:34:13.000Z,29.761
2018-08-08T23:44:13.000Z,30.083
2018-08-08T23:54:13.000Z,30.54
